sensor_id;sensor_type;location;lat;lon;timestamp;temperature;humidity
68922;DHT22;55959;51.244;5.724;2023-11-21T00:00:20;11.50;75.30
68922;DHT22;55959;51.244;5.724;2023-11-21T00:02:46;11.50;75.30
68922;DHT22;55959;51.244;5.724;2023-11-21T00:05:13;11.50;75.50
68922;DHT22;55959;51.244;5.724;2023-11-21T00:07:40;11.50;75.50
68922;DHT22;55959;51.244;5.724;2023-11-21T00:10:07;11.50;75.50
68922;DHT22;55959;51.244;5.724;2023-11-21T00:12:37;11.50;75.60
68922;DHT22;55959;51.244;5.724;2023-11-21T00:15:04;11.50;75.70
68922;DHT22;55959;51.244;5.724;2023-11-21T00:17:34;11.50;75.70
68922;DHT22;55959;51.244;5.724;2023-11-21T00:20:00;11.50;75.70
68922;DHT22;55959;51.244;5.724;2023-11-21T00:22:26;11.50;75.80
68922;DHT22;55959;51.244;5.724;2023-11-21T00:24:51;11.50;75.80
68922;DHT22;55959;51.244;5.724;2023-11-21T00:27:17;11.50;75.80
68922;DHT22;55959;51.244;5.724;2023-11-21T00:29:43;11.50;75.80
68922;DHT22;55959;51.244;5.724;2023-11-21T00:32:09;11.50;75.90
68922;DHT22;55959;51.244;5.724;2023-11-21T00:34:34;11.50;75.90
68922;DHT22;55959;51.244;5.724;2023-11-21T00:37:00;11.60;76.00
68922;DHT22;55959;51.244;5.724;2023-11-21T00:39:26;11.50;76.00
68922;DHT22;55959;51.244;5.724;2023-11-21T00:41:52;11.50;76.10
68922;DHT22;55959;51.244;5.724;2023-11-21T00:44:18;11.60;76.10
68922;DHT22;55959;51.244;5.724;2023-11-21T00:46:44;11.60;76.20
68922;DHT22;55959;51.244;5.724;2023-11-21T00:49:10;11.60;76.20
68922;DHT22;55959;51.244;5.724;2023-11-21T00:51:35;11.50;76.20
68922;DHT22;55959;51.244;5.724;2023-11-21T00:54:01;11.60;76.30
68922;DHT22;55959;51.244;5.724;2023-11-21T00:56:28;11.60;76.30
68922;DHT22;55959;51.244;5.724;2023-11-21T00:58:54;11.60;76.30
68922;DHT22;55959;51.244;5.724;2023-11-21T01:01:20;11.60;76.40
68922;DHT22;55959;51.244;5.724;2023-11-21T01:03:48;11.60;76.40
68922;DHT22;55959;51.244;5.724;2023-11-21T01:06:14;11.60;77.30
68922;DHT22;55959;51.244;5.724;2023-11-21T01:08:41;11.60;76.50
68922;DHT22;55959;51.244;5.724;2023-11-21T01:11:06;11.60;76.50
68922;DHT22;55959;51.244;5.724;2023-11-21T01:13:34;11.60;76.50
68922;DHT22;55959;51.244;5.724;2023-11-21T01:16:00;11.60;76.50
68922;DHT22;55959;51.244;5.724;2023-11-21T01:18:26;11.60;76.50
68922;DHT22;55959;51.244;5.724;2023-11-21T01:20:52;11.60;76.50
68922;DHT22;55959;51.244;5.724;2023-11-21T01:23:20;11.60;76.50
68922;DHT22;55959;51.244;5.724;2023-11-21T01:25:46;11.60;76.60
68922;DHT22;55959;51.244;5.724;2023-11-21T01:28:12;11.60;76.50
68922;DHT22;55959;51.244;5.724;2023-11-21T01:30:38;11.60;76.60
68922;DHT22;55959;51.244;5.724;2023-11-21T01:33:03;11.60;76.60
68922;DHT22;55959;51.244;5.724;2023-11-21T01:35:29;11.60;76.60
68922;DHT22;55959;51.244;5.724;2023-11-21T01:37:55;11.70;76.70
68922;DHT22;55959;51.244;5.724;2023-11-21T01:40:21;11.60;76.70
68922;DHT22;55959;51.244;5.724;2023-11-21T01:42:47;11.70;76.80
68922;DHT22;55959;51.244;5.724;2023-11-21T01:45:14;11.70;76.80
68922;DHT22;55959;51.244;5.724;2023-11-21T01:47:41;11.70;76.80
68922;DHT22;55959;51.244;5.724;2023-11-21T01:50:09;11.70;77.70
68922;DHT22;55959;51.244;5.724;2023-11-21T01:52:39;11.70;76.80
68922;DHT22;55959;51.244;5.724;2023-11-21T01:55:07;11.70;77.70
68922;DHT22;55959;51.244;5.724;2023-11-21T01:57:35;11.70;76.80
68922;DHT22;55959;51.244;5.724;2023-11-21T02:00:03;11.70;76.80
68922;DHT22;55959;51.244;5.724;2023-11-21T02:02:48;11.70;76.90
68922;DHT22;55959;51.244;5.724;2023-11-21T02:05:18;11.70;76.90
68922;DHT22;55959;51.244;5.724;2023-11-21T02:07:45;11.70;76.90
68922;DHT22;55959;51.244;5.724;2023-11-21T02:10:15;11.70;76.90
68922;DHT22;55959;51.244;5.724;2023-11-21T02:12:42;11.70;76.90
68922;DHT22;55959;51.244;5.724;2023-11-21T02:15:17;11.70;76.90
68922;DHT22;55959;51.244;5.724;2023-11-21T02:17:48;11.70;76.90
68922;DHT22;55959;51.244;5.724;2023-11-21T02:20:22;11.80;77.10
68922;DHT22;55959;51.244;5.724;2023-11-21T02:22:53;11.80;77.10
68922;DHT22;55959;51.244;5.724;2023-11-21T02:25:27;11.80;77.10
68922;DHT22;55959;51.244;5.724;2023-11-21T02:27:54;11.80;77.10
68922;DHT22;55959;51.244;5.724;2023-11-21T02:30:24;11.80;77.10
68922;DHT22;55959;51.244;5.724;2023-11-21T02:32:57;11.80;77.10
68922;DHT22;55959;51.244;5.724;2023-11-21T02:35:23;11.80;77.10
68922;DHT22;55959;51.244;5.724;2023-11-21T02:37:51;11.80;77.10
68922;DHT22;55959;51.244;5.724;2023-11-21T02:40:17;11.80;77.10
68922;DHT22;55959;51.244;5.724;2023-11-21T02:42:44;11.80;77.10
68922;DHT22;55959;51.244;5.724;2023-11-21T02:45:10;11.80;77.10
68922;DHT22;55959;51.244;5.724;2023-11-21T02:47:40;11.80;77.10
68922;DHT22;55959;51.244;5.724;2023-11-21T02:50:06;11.80;77.10
68922;DHT22;55959;51.244;5.724;2023-11-21T02:52:35;11.80;77.10
68922;DHT22;55959;51.244;5.724;2023-11-21T02:55:02;11.80;77.10
68922;DHT22;55959;51.244;5.724;2023-11-21T02:57:28;11.80;78.00
68922;DHT22;55959;51.244;5.724;2023-11-21T02:59:54;11.90;77.10
68922;DHT22;55959;51.244;5.724;2023-11-21T03:02:20;11.80;77.10
68922;DHT22;55959;51.244;5.724;2023-11-21T03:04:46;11.80;77.10
68922;DHT22;55959;51.244;5.724;2023-11-21T03:07:14;11.80;77.10
68922;DHT22;55959;51.244;5.724;2023-11-21T03:09:41;11.80;77.10
68922;DHT22;55959;51.244;5.724;2023-11-21T03:12:06;11.80;77.00
68922;DHT22;55959;51.244;5.724;2023-11-21T03:14:34;11.90;77.10
68922;DHT22;55959;51.244;5.724;2023-11-21T03:17:00;11.80;77.00
68922;DHT22;55959;51.244;5.724;2023-11-21T03:19:25;11.80;77.00
68922;DHT22;55959;51.244;5.724;2023-11-21T03:21:51;11.90;77.10
68922;DHT22;55959;51.244;5.724;2023-11-21T03:24:18;11.90;77.10
68922;DHT22;55959;51.244;5.724;2023-11-21T03:26:46;11.90;77.10
68922;DHT22;55959;51.244;5.724;2023-11-21T03:29:14;11.90;77.10
68922;DHT22;55959;51.244;5.724;2023-11-21T03:31:40;11.90;77.20
68922;DHT22;55959;51.244;5.724;2023-11-21T03:34:06;11.90;77.30
68922;DHT22;55959;51.244;5.724;2023-11-21T03:36:32;11.90;77.30
68922;DHT22;55959;51.244;5.724;2023-11-21T03:38:57;11.90;77.30
68922;DHT22;55959;51.244;5.724;2023-11-21T03:41:23;11.90;77.50
68922;DHT22;55959;51.244;5.724;2023-11-21T03:43:49;11.90;77.40
68922;DHT22;55959;51.244;5.724;2023-11-21T03:46:14;11.90;77.40
68922;DHT22;55959;51.244;5.724;2023-11-21T03:48:40;11.90;77.50
68922;DHT22;55959;51.244;5.724;2023-11-21T03:51:07;11.90;77.60
68922;DHT22;55959;51.244;5.724;2023-11-21T03:53:33;11.90;77.50
68922;DHT22;55959;51.244;5.724;2023-11-21T03:55:58;11.90;77.50
68922;DHT22;55959;51.244;5.724;2023-11-21T03:58:24;11.90;77.60
68922;DHT22;55959;51.244;5.724;2023-11-21T04:00:50;11.90;77.60
68922;DHT22;55959;51.244;5.724;2023-11-21T04:03:15;11.90;77.60
68922;DHT22;55959;51.244;5.724;2023-11-21T04:05:41;11.90;77.60
68922;DHT22;55959;51.244;5.724;2023-11-21T04:08:07;11.90;77.50
68922;DHT22;55959;51.244;5.724;2023-11-21T04:10:33;11.90;77.50
68922;DHT22;55959;51.244;5.724;2023-11-21T04:12:59;11.90;77.60
68922;DHT22;55959;51.244;5.724;2023-11-21T04:15:25;11.90;77.60
68922;DHT22;55959;51.244;5.724;2023-11-21T04:17:51;11.90;77.70
68922;DHT22;55959;51.244;5.724;2023-11-21T04:20:17;11.90;77.70
68922;DHT22;55959;51.244;5.724;2023-11-21T04:22:44;11.90;77.70
68922;DHT22;55959;51.244;5.724;2023-11-21T04:25:11;11.90;77.70
68922;DHT22;55959;51.244;5.724;2023-11-21T04:27:38;11.90;77.70
68922;DHT22;55959;51.244;5.724;2023-11-21T04:30:11;11.90;77.70
68922;DHT22;55959;51.244;5.724;2023-11-21T04:32:37;11.90;77.70
68922;DHT22;55959;51.244;5.724;2023-11-21T04:35:04;11.90;77.70
68922;DHT22;55959;51.244;5.724;2023-11-21T04:37:30;11.90;77.70
68922;DHT22;55959;51.244;5.724;2023-11-21T04:39:56;11.90;77.70
68922;DHT22;55959;51.244;5.724;2023-11-21T04:42:22;11.90;77.70
68922;DHT22;55959;51.244;5.724;2023-11-21T04:44:49;11.90;77.70
68922;DHT22;55959;51.244;5.724;2023-11-21T04:47:14;11.90;77.70
68922;DHT22;55959;51.244;5.724;2023-11-21T04:49:43;11.90;77.80
68922;DHT22;55959;51.244;5.724;2023-11-21T04:52:12;11.90;77.80
68922;DHT22;55959;51.244;5.724;2023-11-21T04:54:38;11.90;77.80
68922;DHT22;55959;51.244;5.724;2023-11-21T04:57:05;11.90;77.90
68922;DHT22;55959;51.244;5.724;2023-11-21T04:59:33;11.90;77.90
68922;DHT22;55959;51.244;5.724;2023-11-21T05:01:59;11.90;77.80
68922;DHT22;55959;51.244;5.724;2023-11-21T05:04:25;11.90;77.90
68922;DHT22;55959;51.244;5.724;2023-11-21T05:06:52;11.90;77.80
68922;DHT22;55959;51.244;5.724;2023-11-21T05:09:18;11.90;77.80
68922;DHT22;55959;51.244;5.724;2023-11-21T05:11:43;11.90;77.90
68922;DHT22;55959;51.244;5.724;2023-11-21T05:14:09;11.90;77.90
68922;DHT22;55959;51.244;5.724;2023-11-21T05:16:35;11.90;77.90
68922;DHT22;55959;51.244;5.724;2023-11-21T05:19:01;11.90;78.90
68922;DHT22;55959;51.244;5.724;2023-11-21T05:21:27;11.90;78.00
68922;DHT22;55959;51.244;5.724;2023-11-21T05:23:55;11.90;78.10
68922;DHT22;55959;51.244;5.724;2023-11-21T05:26:20;11.90;78.10
68922;DHT22;55959;51.244;5.724;2023-11-21T05:28:47;11.90;78.00
68922;DHT22;55959;51.244;5.724;2023-11-21T05:31:13;11.90;78.00
68922;DHT22;55959;51.244;5.724;2023-11-21T05:33:38;11.90;78.10
68922;DHT22;55959;51.244;5.724;2023-11-21T05:36:04;11.90;78.10
68922;DHT22;55959;51.244;5.724;2023-11-21T05:38:33;11.90;78.00
68922;DHT22;55959;51.244;5.724;2023-11-21T05:41:00;12.00;78.00
68922;DHT22;55959;51.244;5.724;2023-11-21T05:43:26;11.90;77.90
68922;DHT22;55959;51.244;5.724;2023-11-21T05:45:54;11.90;78.00
68922;DHT22;55959;51.244;5.724;2023-11-21T05:48:20;11.90;78.00
68922;DHT22;55959;51.244;5.724;2023-11-21T05:50:46;11.90;77.90
68922;DHT22;55959;51.244;5.724;2023-11-21T05:53:13;11.90;77.90
68922;DHT22;55959;51.244;5.724;2023-11-21T05:55:41;11.90;77.90
68922;DHT22;55959;51.244;5.724;2023-11-21T05:58:07;11.90;78.00
68922;DHT22;55959;51.244;5.724;2023-11-21T06:00:33;11.90;78.00
68922;DHT22;55959;51.244;5.724;2023-11-21T06:02:59;11.90;77.90
68922;DHT22;55959;51.244;5.724;2023-11-21T06:05:25;11.90;77.90
68922;DHT22;55959;51.244;5.724;2023-11-21T06:07:53;11.90;78.80
68922;DHT22;55959;51.244;5.724;2023-11-21T06:10:23;11.90;77.90
68922;DHT22;55959;51.244;5.724;2023-11-21T06:12:49;11.90;77.90
68922;DHT22;55959;51.244;5.724;2023-11-21T06:15:15;11.90;77.90
68922;DHT22;55959;51.244;5.724;2023-11-21T06:17:42;12.00;78.00
68922;DHT22;55959;51.244;5.724;2023-11-21T06:20:10;12.00;78.00
68922;DHT22;55959;51.244;5.724;2023-11-21T06:22:44;12.00;77.90
68922;DHT22;55959;51.244;5.724;2023-11-21T06:25:12;12.00;78.00
68922;DHT22;55959;51.244;5.724;2023-11-21T06:27:43;12.00;78.00
68922;DHT22;55959;51.244;5.724;2023-11-21T06:30:10;12.00;77.90
68922;DHT22;55959;51.244;5.724;2023-11-21T06:32:37;11.90;77.90
68922;DHT22;55959;51.244;5.724;2023-11-21T06:35:04;12.00;77.90
68922;DHT22;55959;51.244;5.724;2023-11-21T06:37:31;11.90;77.90
68922;DHT22;55959;51.244;5.724;2023-11-21T06:39:58;11.90;77.90
68922;DHT22;55959;51.244;5.724;2023-11-21T06:42:25;11.90;77.90
68922;DHT22;55959;51.244;5.724;2023-11-21T06:44:51;11.90;77.90
68922;DHT22;55959;51.244;5.724;2023-11-21T06:47:18;11.90;77.90
68922;DHT22;55959;51.244;5.724;2023-11-21T06:49:47;11.90;78.00
68922;DHT22;55959;51.244;5.724;2023-11-21T06:52:13;11.90;77.90
68922;DHT22;55959;51.244;5.724;2023-11-21T06:54:39;11.90;77.90
68922;DHT22;55959;51.244;5.724;2023-11-21T06:57:05;11.90;77.90
68922;DHT22;55959;51.244;5.724;2023-11-21T06:59:31;11.90;78.00
68922;DHT22;55959;51.244;5.724;2023-11-21T07:01:57;11.90;78.00
68922;DHT22;55959;51.244;5.724;2023-11-21T07:04:23;11.90;78.10
68922;DHT22;55959;51.244;5.724;2023-11-21T07:06:53;11.90;78.00
68922;DHT22;55959;51.244;5.724;2023-11-21T07:09:19;11.90;78.00
68922;DHT22;55959;51.244;5.724;2023-11-21T07:11:50;11.90;78.10
68922;DHT22;55959;51.244;5.724;2023-11-21T07:14:16;11.90;78.10
68922;DHT22;55959;51.244;5.724;2023-11-21T07:16:42;11.90;78.10
68922;DHT22;55959;51.244;5.724;2023-11-21T07:19:08;11.90;78.10
68922;DHT22;55959;51.244;5.724;2023-11-21T07:21:35;11.90;78.10
68922;DHT22;55959;51.244;5.724;2023-11-21T07:24:02;11.90;78.10
68922;DHT22;55959;51.244;5.724;2023-11-21T07:26:29;11.90;78.10
68922;DHT22;55959;51.244;5.724;2023-11-21T07:28:55;12.00;78.20
68922;DHT22;55959;51.244;5.724;2023-11-21T07:31:22;12.00;78.20
68922;DHT22;55959;51.244;5.724;2023-11-21T07:33:48;12.00;78.20
68922;DHT22;55959;51.244;5.724;2023-11-21T07:36:14;12.00;78.20
68922;DHT22;55959;51.244;5.724;2023-11-21T07:38:42;12.00;78.20
68922;DHT22;55959;51.244;5.724;2023-11-21T07:41:08;12.00;78.20
68922;DHT22;55959;51.244;5.724;2023-11-21T07:43:35;12.00;78.30
68922;DHT22;55959;51.244;5.724;2023-11-21T07:46:04;12.00;78.30
68922;DHT22;55959;51.244;5.724;2023-11-21T07:48:31;12.00;78.20
68922;DHT22;55959;51.244;5.724;2023-11-21T07:50:57;12.00;78.20
68922;DHT22;55959;51.244;5.724;2023-11-21T07:53:24;12.00;78.30
68922;DHT22;55959;51.244;5.724;2023-11-21T07:55:55;12.00;78.30
68922;DHT22;55959;51.244;5.724;2023-11-21T07:58:21;12.00;78.30
68922;DHT22;55959;51.244;5.724;2023-11-21T08:00:47;12.00;78.30
68922;DHT22;55959;51.244;5.724;2023-11-21T08:03:14;12.10;78.30
68922;DHT22;55959;51.244;5.724;2023-11-21T08:05:40;12.10;78.40
68922;DHT22;55959;51.244;5.724;2023-11-21T08:08:06;12.10;78.40
68922;DHT22;55959;51.244;5.724;2023-11-21T08:10:31;12.10;78.40
68922;DHT22;55959;51.244;5.724;2023-11-21T08:12:57;12.10;78.40
68922;DHT22;55959;51.244;5.724;2023-11-21T08:15:23;12.10;78.40
68922;DHT22;55959;51.244;5.724;2023-11-21T08:17:49;12.10;78.50
68922;DHT22;55959;51.244;5.724;2023-11-21T08:20:15;12.10;78.50
68922;DHT22;55959;51.244;5.724;2023-11-21T08:22:44;12.10;78.50
68922;DHT22;55959;51.244;5.724;2023-11-21T08:25:10;12.10;78.50
68922;DHT22;55959;51.244;5.724;2023-11-21T08:27:36;12.20;78.60
68922;DHT22;55959;51.244;5.724;2023-11-21T08:30:05;12.20;78.50
68922;DHT22;55959;51.244;5.724;2023-11-21T08:32:32;12.20;78.60
68922;DHT22;55959;51.244;5.724;2023-11-21T08:34:59;12.20;78.60
68922;DHT22;55959;51.244;5.724;2023-11-21T08:37:25;12.20;78.60
68922;DHT22;55959;51.244;5.724;2023-11-21T08:39:52;12.20;78.50
68922;DHT22;55959;51.244;5.724;2023-11-21T08:42:18;12.20;78.60
68922;DHT22;55959;51.244;5.724;2023-11-21T08:44:44;12.20;78.60
68922;DHT22;55959;51.244;5.724;2023-11-21T08:47:11;12.20;78.70
68922;DHT22;55959;51.244;5.724;2023-11-21T08:49:37;12.30;78.70
68922;DHT22;55959;51.244;5.724;2023-11-21T08:52:03;12.30;78.70
68922;DHT22;55959;51.244;5.724;2023-11-21T08:54:30;12.30;78.80
68922;DHT22;55959;51.244;5.724;2023-11-21T08:56:57;12.30;78.70
68922;DHT22;55959;51.244;5.724;2023-11-21T08:59:26;12.30;79.70
68922;DHT22;55959;51.244;5.724;2023-11-21T09:01:52;12.30;78.80
68922;DHT22;55959;51.244;5.724;2023-11-21T09:04:18;12.30;78.80
68922;DHT22;55959;51.244;5.724;2023-11-21T09:06:44;12.30;78.90
68922;DHT22;55959;51.244;5.724;2023-11-21T09:09:10;12.30;79.70
68922;DHT22;55959;51.244;5.724;2023-11-21T09:11:36;12.30;78.90
68922;DHT22;55959;51.244;5.724;2023-11-21T09:14:03;12.40;78.90
68922;DHT22;55959;51.244;5.724;2023-11-21T09:16:29;12.40;78.90
68922;DHT22;55959;51.244;5.724;2023-11-21T09:18:55;12.40;78.90
68922;DHT22;55959;51.244;5.724;2023-11-21T09:21:21;12.40;78.90
68922;DHT22;55959;51.244;5.724;2023-11-21T09:23:48;12.40;78.90
68922;DHT22;55959;51.244;5.724;2023-11-21T09:26:13;12.40;78.90
68922;DHT22;55959;51.244;5.724;2023-11-21T09:28:43;12.50;79.00
68922;DHT22;55959;51.244;5.724;2023-11-21T09:31:13;12.50;78.90
68922;DHT22;55959;51.244;5.724;2023-11-21T09:33:43;12.50;79.00
68922;DHT22;55959;51.244;5.724;2023-11-21T09:36:12;12.50;79.00
68922;DHT22;55959;51.244;5.724;2023-11-21T09:38:41;12.50;78.90
68922;DHT22;55959;51.244;5.724;2023-11-21T09:41:15;12.50;79.00
68922;DHT22;55959;51.244;5.724;2023-11-21T09:43:47;12.50;79.00
68922;DHT22;55959;51.244;5.724;2023-11-21T09:46:14;12.60;79.10
68922;DHT22;55959;51.244;5.724;2023-11-21T09:48:50;12.60;79.10
68922;DHT22;55959;51.244;5.724;2023-11-21T09:51:19;12.60;79.10
68922;DHT22;55959;51.244;5.724;2023-11-21T09:53:49;12.60;79.20
68922;DHT22;55959;51.244;5.724;2023-11-21T09:56:17;12.60;79.30
68922;DHT22;55959;51.244;5.724;2023-11-21T09:58:51;12.60;79.30
68922;DHT22;55959;51.244;5.724;2023-11-21T10:01:19;12.70;79.40
68922;DHT22;55959;51.244;5.724;2023-11-21T10:03:46;12.70;79.40
68922;DHT22;55959;51.244;5.724;2023-11-21T10:06:13;12.70;79.40
68922;DHT22;55959;51.244;5.724;2023-11-21T10:08:42;12.70;79.40
68922;DHT22;55959;51.244;5.724;2023-11-21T10:11:08;12.70;79.40
68922;DHT22;55959;51.244;5.724;2023-11-21T10:13:37;12.80;79.40
68922;DHT22;55959;51.244;5.724;2023-11-21T10:16:05;12.80;79.50
68922;DHT22;55959;51.244;5.724;2023-11-21T10:18:34;12.80;79.50
68922;DHT22;55959;51.244;5.724;2023-11-21T10:21:03;12.80;79.50
68922;DHT22;55959;51.244;5.724;2023-11-21T10:23:29;12.90;79.60
68922;DHT22;55959;51.244;5.724;2023-11-21T10:25:55;12.90;79.60
68922;DHT22;55959;51.244;5.724;2023-11-21T10:28:21;12.90;79.60
68922;DHT22;55959;51.244;5.724;2023-11-21T10:30:46;12.90;79.60
68922;DHT22;55959;51.244;5.724;2023-11-21T10:33:12;13.00;79.70
68922;DHT22;55959;51.244;5.724;2023-11-21T10:38:07;13.10;79.70
68922;DHT22;55959;51.244;5.724;2023-11-21T10:40:38;13.00;79.60
68922;DHT22;55959;51.244;5.724;2023-11-21T10:43:08;13.10;79.70
68922;DHT22;55959;51.244;5.724;2023-11-21T10:45:38;13.10;79.70
68922;DHT22;55959;51.244;5.724;2023-11-21T10:48:06;13.10;79.60
68922;DHT22;55959;51.244;5.724;2023-11-21T10:50:36;13.10;79.60
68922;DHT22;55959;51.244;5.724;2023-11-21T10:53:03;13.10;79.60
68922;DHT22;55959;51.244;5.724;2023-11-21T10:55:30;13.20;79.70
68922;DHT22;55959;51.244;5.724;2023-11-21T10:58:03;13.20;79.60
68922;DHT22;55959;51.244;5.724;2023-11-21T11:00:32;13.20;79.70
68922;DHT22;55959;51.244;5.724;2023-11-21T11:02:59;13.30;79.70
68922;DHT22;55959;51.244;5.724;2023-11-21T11:05:27;13.30;79.60
68922;DHT22;55959;51.244;5.724;2023-11-21T11:08:04;13.30;79.60
68922;DHT22;55959;51.244;5.724;2023-11-21T11:10:32;13.30;79.60
68922;DHT22;55959;51.244;5.724;2023-11-21T11:12:58;13.40;79.60
68922;DHT22;55959;51.244;5.724;2023-11-21T11:15:26;13.40;79.60
68922;DHT22;55959;51.244;5.724;2023-11-21T11:17:53;13.40;79.60
68922;DHT22;55959;51.244;5.724;2023-11-21T11:20:32;13.40;79.50
68922;DHT22;55959;51.244;5.724;2023-11-21T11:32:32;13.50;79.60
68922;DHT22;55959;51.244;5.724;2023-11-21T11:35:12;13.50;79.60
68922;DHT22;55959;51.244;5.724;2023-11-21T11:38:00;13.50;79.50
68922;DHT22;55959;51.244;5.724;2023-11-21T11:40:41;13.50;79.50
68922;DHT22;55959;51.244;5.724;2023-11-21T11:43:10;13.60;79.60
68922;DHT22;55959;51.244;5.724;2023-11-21T11:45:37;13.50;79.40
68922;DHT22;55959;51.244;5.724;2023-11-21T11:48:07;13.60;79.40
68922;DHT22;55959;51.244;5.724;2023-11-21T11:50:33;13.60;79.40
68922;DHT22;55959;51.244;5.724;2023-11-21T11:53:12;13.60;79.40
68922;DHT22;55959;51.244;5.724;2023-11-21T11:55:39;13.60;79.40
68922;DHT22;55959;51.244;5.724;2023-11-21T11:58:06;13.70;79.40
68922;DHT22;55959;51.244;5.724;2023-11-21T12:03:01;13.70;79.40
68922;DHT22;55959;51.244;5.724;2023-11-21T12:05:29;13.70;79.30
68922;DHT22;55959;51.244;5.724;2023-11-21T12:08:07;13.70;79.20
68922;DHT22;55959;51.244;5.724;2023-11-21T12:10:34;13.70;79.20
68922;DHT22;55959;51.244;5.724;2023-11-21T12:13:04;13.80;79.20
68922;DHT22;55959;51.244;5.724;2023-11-21T12:15:32;13.80;79.20
68922;DHT22;55959;51.244;5.724;2023-11-21T12:17:59;13.80;79.20
68922;DHT22;55959;51.244;5.724;2023-11-21T12:20:25;13.80;79.10
68922;DHT22;55959;51.244;5.724;2023-11-21T12:22:53;13.80;79.00
68922;DHT22;55959;51.244;5.724;2023-11-21T12:25:21;13.80;79.00
68922;DHT22;55959;51.244;5.724;2023-11-21T12:27:52;13.80;79.00
68922;DHT22;55959;51.244;5.724;2023-11-21T12:30:22;13.80;79.00
68922;DHT22;55959;51.244;5.724;2023-11-21T12:32:50;13.80;79.00
68922;DHT22;55959;51.244;5.724;2023-11-21T12:35:18;13.90;79.00
68922;DHT22;55959;51.244;5.724;2023-11-21T12:37:47;13.90;79.00
68922;DHT22;55959;51.244;5.724;2023-11-21T12:40:14;13.90;79.80
68922;DHT22;55959;51.244;5.724;2023-11-21T12:42:45;13.90;78.90
68922;DHT22;55959;51.244;5.724;2023-11-21T12:47:50;13.90;78.90
68922;DHT22;55959;51.244;5.724;2023-11-21T12:50:20;13.90;78.90
68922;DHT22;55959;51.244;5.724;2023-11-21T12:52:50;13.90;79.00
68922;DHT22;55959;51.244;5.724;2023-11-21T12:55:17;13.90;79.00
68922;DHT22;55959;51.244;5.724;2023-11-21T12:57:45;13.90;79.00
68922;DHT22;55959;51.244;5.724;2023-11-21T13:00:12;13.90;79.00
68922;DHT22;55959;51.244;5.724;2023-11-21T13:02:51;14.00;79.00
68922;DHT22;55959;51.244;5.724;2023-11-21T13:05:33;14.00;79.00
68922;DHT22;55959;51.244;5.724;2023-11-21T13:08:02;14.00;78.90
68922;DHT22;55959;51.244;5.724;2023-11-21T13:10:30;14.00;78.80
68922;DHT22;55959;51.244;5.724;2023-11-21T13:12:57;14.00;78.80
68922;DHT22;55959;51.244;5.724;2023-11-21T13:15:24;14.00;78.80
68922;DHT22;55959;51.244;5.724;2023-11-21T13:17:51;14.00;78.80
68922;DHT22;55959;51.244;5.724;2023-11-21T13:20:17;14.00;78.70
68922;DHT22;55959;51.244;5.724;2023-11-21T13:22:55;14.00;78.70
68922;DHT22;55959;51.244;5.724;2023-11-21T13:25:29;14.10;78.70
68922;DHT22;55959;51.244;5.724;2023-11-21T13:27:57;14.10;78.60
68922;DHT22;55959;51.244;5.724;2023-11-21T13:30:25;14.10;78.60
68922;DHT22;55959;51.244;5.724;2023-11-21T13:33:02;14.10;78.60
68922;DHT22;55959;51.244;5.724;2023-11-21T13:35:33;14.10;78.60
68922;DHT22;55959;51.244;5.724;2023-11-21T13:38:17;14.10;78.60
68922;DHT22;55959;51.244;5.724;2023-11-21T13:40:52;14.10;78.50
68922;DHT22;55959;51.244;5.724;2023-11-21T13:43:23;14.10;78.50
68922;DHT22;55959;51.244;5.724;2023-11-21T13:45:52;14.10;78.40
68922;DHT22;55959;51.244;5.724;2023-11-21T13:48:28;14.10;78.40
68922;DHT22;55959;51.244;5.724;2023-11-21T13:51:01;14.10;78.40
68922;DHT22;55959;51.244;5.724;2023-11-21T13:53:38;14.10;78.40
68922;DHT22;55959;51.244;5.724;2023-11-21T13:56:05;14.10;78.30
68922;DHT22;55959;51.244;5.724;2023-11-21T13:58:31;14.10;78.20
68922;DHT22;55959;51.244;5.724;2023-11-21T14:01:23;14.10;78.20
68922;DHT22;55959;51.244;5.724;2023-11-21T14:04:00;14.10;78.20
68922;DHT22;55959;51.244;5.724;2023-11-21T14:06:46;14.10;78.40
68922;DHT22;55959;51.244;5.724;2023-11-21T14:09:32;14.10;78.30
68922;DHT22;55959;51.244;5.724;2023-11-21T14:12:01;14.10;78.40
68922;DHT22;55959;51.244;5.724;2023-11-21T14:14:31;14.10;78.20
68922;DHT22;55959;51.244;5.724;2023-11-21T14:16:57;14.10;78.20
68922;DHT22;55959;51.244;5.724;2023-11-21T14:19:24;14.10;78.10
68922;DHT22;55959;51.244;5.724;2023-11-21T14:21:56;14.10;78.00
68922;DHT22;55959;51.244;5.724;2023-11-21T14:24:22;14.10;78.00
68922;DHT22;55959;51.244;5.724;2023-11-21T14:26:49;14.10;78.00
68922;DHT22;55959;51.244;5.724;2023-11-21T14:29:17;14.10;78.80
68922;DHT22;55959;51.244;5.724;2023-11-21T14:31:46;14.10;77.90
68922;DHT22;55959;51.244;5.724;2023-11-21T14:34:12;14.10;77.90
68922;DHT22;55959;51.244;5.724;2023-11-21T14:36:40;14.10;77.80
68922;DHT22;55959;51.244;5.724;2023-11-21T14:39:06;14.10;77.80
68922;DHT22;55959;51.244;5.724;2023-11-21T14:41:35;14.10;77.80
68922;DHT22;55959;51.244;5.724;2023-11-21T14:44:01;14.10;77.80
68922;DHT22;55959;51.244;5.724;2023-11-21T14:46:29;14.10;77.70
68922;DHT22;55959;51.244;5.724;2023-11-21T14:48:55;14.10;77.70
68922;DHT22;55959;51.244;5.724;2023-11-21T14:51:28;14.10;77.70
68922;DHT22;55959;51.244;5.724;2023-11-21T14:53:57;14.10;77.60
68922;DHT22;55959;51.244;5.724;2023-11-21T14:56:32;14.10;77.60
68922;DHT22;55959;51.244;5.724;2023-11-21T14:59:02;14.10;77.60
68922;DHT22;55959;51.244;5.724;2023-11-21T15:01:37;14.10;77.60
68922;DHT22;55959;51.244;5.724;2023-11-21T15:04:21;14.10;77.50
68922;DHT22;55959;51.244;5.724;2023-11-21T15:07:04;14.10;77.50
68922;DHT22;55959;51.244;5.724;2023-11-21T15:09:32;14.10;77.50
68922;DHT22;55959;51.244;5.724;2023-11-21T15:12:01;14.10;77.50
68922;DHT22;55959;51.244;5.724;2023-11-21T15:14:48;14.10;77.50
68922;DHT22;55959;51.244;5.724;2023-11-21T15:17:18;14.10;77.40
68922;DHT22;55959;51.244;5.724;2023-11-21T15:19:52;14.10;77.40
68922;DHT22;55959;51.244;5.724;2023-11-21T15:22:19;14.10;77.40
68922;DHT22;55959;51.244;5.724;2023-11-21T15:24:45;14.10;77.40
68922;DHT22;55959;51.244;5.724;2023-11-21T15:27:15;14.10;77.40
68922;DHT22;55959;51.244;5.724;2023-11-21T15:29:42;14.10;77.40
68922;DHT22;55959;51.244;5.724;2023-11-21T15:32:09;14.10;77.30
68922;DHT22;55959;51.244;5.724;2023-11-21T15:34:36;14.10;77.30
68922;DHT22;55959;51.244;5.724;2023-11-21T15:37:03;14.10;77.30
68922;DHT22;55959;51.244;5.724;2023-11-21T15:39:30;14.10;77.20
68922;DHT22;55959;51.244;5.724;2023-11-21T15:41:59;14.10;77.30
68922;DHT22;55959;51.244;5.724;2023-11-21T15:44:26;14.10;77.20
68922;DHT22;55959;51.244;5.724;2023-11-21T15:46:53;14.10;77.20
68922;DHT22;55959;51.244;5.724;2023-11-21T15:49:19;14.10;77.30
68922;DHT22;55959;51.244;5.724;2023-11-21T15:51:50;14.10;77.20